KIDP

Independence Municipal Airport

Independence, Kansas, USA
METAR KIDP 202015Z AUTO 28013KT 10SM SCT033 SCT039 OVC050 24/18 A2993 RMK AO2 T02410177
Observed Flight Rules
Aug-20 @ 20:15 UTC (16 minutes ago) Visual Flight Rules
Wind Visibility Clouds
280° at 13 knots 10 miles
  • Scattered at 3,300' AGL
  • Scattered at 3,900' AGL
  • Overcast at 5,000' AGL
Temperatures Readings
Current 24°C / 75°F
Dewpoint 18°C / 64°F
Humidity 69%
Altimeter 29.93" Hg
Pressure 1014 hPa
Elevation 251
METAR KIDP 202015Z AUTO 28013KT 10SM SCT033 SCT039 OVC050 24/18 A2993 RMK AO2 T02410177
Observed Flight Rules
Aug-20 @ 20:15 UTC
(16 minutes ago)
VFR
Wind Visibility
280° at 13 knots 10 miles
Clouds
  • Scattered at 3,300' AGL
  • Scattered at 3,900' AGL
  • Overcast at 5,000' AGL
Temperature Dewpoint
24°C / 75°F 18°C / 64°F
Humidity Altimeter Pressure
69% 29.93" Hg 1014 hPa